sensor_id;sensor_type;location;lat;lon;timestamp;temperature;humidity
59660;DHT22;45534;52.690;6.268;2023-03-14T00:00:47;10.90;99.90
59660;DHT22;45534;52.690;6.268;2023-03-14T00:03:12;11.00;99.90
59660;DHT22;45534;52.690;6.268;2023-03-14T00:05:38;11.00;99.90
59660;DHT22;45534;52.690;6.268;2023-03-14T00:08:04;11.00;99.90
59660;DHT22;45534;52.690;6.268;2023-03-14T00:10:30;11.00;99.90
59660;DHT22;45534;52.690;6.268;2023-03-14T00:12:55;11.00;99.90
59660;DHT22;45534;52.690;6.268;2023-03-14T00:15:21;11.00;99.90
59660;DHT22;45534;52.690;6.268;2023-03-14T00:17:47;11.00;99.90
59660;DHT22;45534;52.690;6.268;2023-03-14T00:20:13;11.10;99.90
59660;DHT22;45534;52.690;6.268;2023-03-14T00:22:39;11.00;99.90
59660;DHT22;45534;52.690;6.268;2023-03-14T00:25:07;11.00;99.90
59660;DHT22;45534;52.690;6.268;2023-03-14T00:27:33;11.00;99.90
59660;DHT22;45534;52.690;6.268;2023-03-14T00:29:59;10.90;99.90
59660;DHT22;45534;52.690;6.268;2023-03-14T00:32:25;10.90;99.90
59660;DHT22;45534;52.690;6.268;2023-03-14T00:34:51;10.90;99.90
59660;DHT22;45534;52.690;6.268;2023-03-14T00:37:16;10.90;99.90
59660;DHT22;45534;52.690;6.268;2023-03-14T00:39:42;10.80;99.90
59660;DHT22;45534;52.690;6.268;2023-03-14T00:42:08;10.90;99.90
59660;DHT22;45534;52.690;6.268;2023-03-14T00:44:34;10.90;99.90
59660;DHT22;45534;52.690;6.268;2023-03-14T00:46:59;10.90;99.90
59660;DHT22;45534;52.690;6.268;2023-03-14T00:49:25;10.90;99.90
59660;DHT22;45534;52.690;6.268;2023-03-14T00:51:52;10.90;99.90
59660;DHT22;45534;52.690;6.268;2023-03-14T00:54:19;10.90;99.90
59660;DHT22;45534;52.690;6.268;2023-03-14T00:56:44;10.90;99.90
59660;DHT22;45534;52.690;6.268;2023-03-14T00:59:10;10.90;99.90
59660;DHT22;45534;52.690;6.268;2023-03-14T01:01:36;10.90;99.90
59660;DHT22;45534;52.690;6.268;2023-03-14T01:04:03;10.90;99.90
59660;DHT22;45534;52.690;6.268;2023-03-14T01:06:31;10.90;99.90
59660;DHT22;45534;52.690;6.268;2023-03-14T01:08:57;10.80;99.90
59660;DHT22;45534;52.690;6.268;2023-03-14T01:11:28;10.80;99.90
59660;DHT22;45534;52.690;6.268;2023-03-14T01:13:54;10.80;99.90
59660;DHT22;45534;52.690;6.268;2023-03-14T01:16:21;10.80;99.90
59660;DHT22;45534;52.690;6.268;2023-03-14T01:18:48;10.80;99.90
59660;DHT22;45534;52.690;6.268;2023-03-14T01:21:23;10.70;99.90
59660;DHT22;45534;52.690;6.268;2023-03-14T01:23:50;10.70;99.90
59660;DHT22;45534;52.690;6.268;2023-03-14T01:26:18;10.60;99.90
59660;DHT22;45534;52.690;6.268;2023-03-14T01:28:48;10.60;99.90
59660;DHT22;45534;52.690;6.268;2023-03-14T01:31:14;10.50;99.90
59660;DHT22;45534;52.690;6.268;2023-03-14T01:33:40;10.50;99.90
59660;DHT22;45534;52.690;6.268;2023-03-14T01:36:07;10.40;99.90
59660;DHT22;45534;52.690;6.268;2023-03-14T01:38:34;10.40;99.90
59660;DHT22;45534;52.690;6.268;2023-03-14T01:41:01;10.40;99.90
59660;DHT22;45534;52.690;6.268;2023-03-14T01:43:27;10.30;99.90
59660;DHT22;45534;52.690;6.268;2023-03-14T01:54:43;10.40;99.90
59660;DHT22;45534;52.690;6.268;2023-03-14T01:57:41;10.40;99.90
59660;DHT22;45534;52.690;6.268;2023-03-14T02:00:15;10.40;99.90
59660;DHT22;45534;52.690;6.268;2023-03-14T02:02:45;10.40;99.90
59660;DHT22;45534;52.690;6.268;2023-03-14T02:05:13;10.50;99.90
59660;DHT22;45534;52.690;6.268;2023-03-14T02:07:47;10.50;99.90
59660;DHT22;45534;52.690;6.268;2023-03-14T02:10:16;10.50;99.90
59660;DHT22;45534;52.690;6.268;2023-03-14T02:12:45;10.50;99.90
59660;DHT22;45534;52.690;6.268;2023-03-14T02:15:12;10.40;99.90
59660;DHT22;45534;52.690;6.268;2023-03-14T02:17:42;10.30;99.90
59660;DHT22;45534;52.690;6.268;2023-03-14T02:22:35;10.20;99.90
59660;DHT22;45534;52.690;6.268;2023-03-14T02:27:53;10.10;99.90
59660;DHT22;45534;52.690;6.268;2023-03-14T02:30:28;10.00;99.90
59660;DHT22;45534;52.690;6.268;2023-03-14T02:33:01;10.00;99.90
59660;DHT22;45534;52.690;6.268;2023-03-14T02:35:44;10.00;99.90
59660;DHT22;45534;52.690;6.268;2023-03-14T02:38:35;10.00;99.90
59660;DHT22;45534;52.690;6.268;2023-03-14T02:41:03;9.90;99.90
59660;DHT22;45534;52.690;6.268;2023-03-14T02:43:29;9.90;99.90
59660;DHT22;45534;52.690;6.268;2023-03-14T02:45:55;9.80;99.90
59660;DHT22;45534;52.690;6.268;2023-03-14T02:48:37;9.70;99.90
59660;DHT22;45534;52.690;6.268;2023-03-14T02:51:04;9.60;99.90
59660;DHT22;45534;52.690;6.268;2023-03-14T02:53:33;9.60;99.90
59660;DHT22;45534;52.690;6.268;2023-03-14T02:55:59;9.60;99.90
59660;DHT22;45534;52.690;6.268;2023-03-14T02:58:26;9.50;99.90
59660;DHT22;45534;52.690;6.268;2023-03-14T03:00:52;9.50;99.90
59660;DHT22;45534;52.690;6.268;2023-03-14T03:03:18;9.50;99.90
59660;DHT22;45534;52.690;6.268;2023-03-14T03:05:48;9.40;99.90
59660;DHT22;45534;52.690;6.268;2023-03-14T03:08:14;9.40;99.90
59660;DHT22;45534;52.690;6.268;2023-03-14T03:10:39;9.40;99.90
59660;DHT22;45534;52.690;6.268;2023-03-14T03:13:05;9.40;99.90
59660;DHT22;45534;52.690;6.268;2023-03-14T03:15:31;9.40;99.90
59660;DHT22;45534;52.690;6.268;2023-03-14T03:17:56;9.40;99.90
59660;DHT22;45534;52.690;6.268;2023-03-14T03:20:22;9.50;99.90
59660;DHT22;45534;52.690;6.268;2023-03-14T03:22:48;9.50;99.90
59660;DHT22;45534;52.690;6.268;2023-03-14T03:25:15;9.50;99.90
59660;DHT22;45534;52.690;6.268;2023-03-14T03:27:40;9.50;99.90
59660;DHT22;45534;52.690;6.268;2023-03-14T03:30:07;9.50;99.90
59660;DHT22;45534;52.690;6.268;2023-03-14T03:32:33;9.50;99.90
59660;DHT22;45534;52.690;6.268;2023-03-14T03:34:59;9.50;99.90
59660;DHT22;45534;52.690;6.268;2023-03-14T03:37:24;9.40;99.90
59660;DHT22;45534;52.690;6.268;2023-03-14T03:39:51;9.50;99.90
59660;DHT22;45534;52.690;6.268;2023-03-14T03:42:17;9.50;99.90
59660;DHT22;45534;52.690;6.268;2023-03-14T03:44:43;9.50;99.90
59660;DHT22;45534;52.690;6.268;2023-03-14T03:47:09;9.50;99.90
59660;DHT22;45534;52.690;6.268;2023-03-14T03:49:34;9.50;99.90
59660;DHT22;45534;52.690;6.268;2023-03-14T03:52:00;9.50;99.90
59660;DHT22;45534;52.690;6.268;2023-03-14T03:54:26;9.50;99.90
59660;DHT22;45534;52.690;6.268;2023-03-14T03:56:52;9.50;99.90
59660;DHT22;45534;52.690;6.268;2023-03-14T03:59:18;9.40;99.90
59660;DHT22;45534;52.690;6.268;2023-03-14T04:01:44;9.40;99.90
59660;DHT22;45534;52.690;6.268;2023-03-14T04:04:10;9.30;99.90
59660;DHT22;45534;52.690;6.268;2023-03-14T04:06:37;9.30;99.90
59660;DHT22;45534;52.690;6.268;2023-03-14T04:09:03;9.30;99.90
59660;DHT22;45534;52.690;6.268;2023-03-14T04:11:29;9.20;99.90
59660;DHT22;45534;52.690;6.268;2023-03-14T04:13:54;9.20;99.90
59660;DHT22;45534;52.690;6.268;2023-03-14T04:16:22;9.20;99.90
59660;DHT22;45534;52.690;6.268;2023-03-14T04:18:48;9.20;99.90
59660;DHT22;45534;52.690;6.268;2023-03-14T04:21:14;9.20;99.90
59660;DHT22;45534;52.690;6.268;2023-03-14T04:23:40;9.20;99.90
59660;DHT22;45534;52.690;6.268;2023-03-14T04:26:06;9.10;99.90
59660;DHT22;45534;52.690;6.268;2023-03-14T04:28:31;9.20;99.90
59660;DHT22;45534;52.690;6.268;2023-03-14T04:30:57;9.20;99.90
59660;DHT22;45534;52.690;6.268;2023-03-14T04:33:23;9.20;99.90
59660;DHT22;45534;52.690;6.268;2023-03-14T04:35:49;9.20;99.90
59660;DHT22;45534;52.690;6.268;2023-03-14T04:38:18;9.20;99.90
59660;DHT22;45534;52.690;6.268;2023-03-14T04:40:44;9.30;99.90
59660;DHT22;45534;52.690;6.268;2023-03-14T04:43:10;9.30;99.90
59660;DHT22;45534;52.690;6.268;2023-03-14T04:45:37;9.30;99.90
59660;DHT22;45534;52.690;6.268;2023-03-14T04:48:03;9.40;99.90
59660;DHT22;45534;52.690;6.268;2023-03-14T04:50:28;9.40;99.90
59660;DHT22;45534;52.690;6.268;2023-03-14T04:52:54;9.40;99.90
59660;DHT22;45534;52.690;6.268;2023-03-14T04:55:20;9.40;99.90
59660;DHT22;45534;52.690;6.268;2023-03-14T04:57:45;9.50;99.90
59660;DHT22;45534;52.690;6.268;2023-03-14T05:00:11;9.50;99.90
59660;DHT22;45534;52.690;6.268;2023-03-14T05:02:37;9.60;99.90
59660;DHT22;45534;52.690;6.268;2023-03-14T05:05:03;9.60;99.90
59660;DHT22;45534;52.690;6.268;2023-03-14T05:07:29;9.60;99.90
59660;DHT22;45534;52.690;6.268;2023-03-14T05:09:54;9.50;99.90
59660;DHT22;45534;52.690;6.268;2023-03-14T05:12:20;9.50;99.90
59660;DHT22;45534;52.690;6.268;2023-03-14T05:14:46;9.50;99.90
59660;DHT22;45534;52.690;6.268;2023-03-14T05:17:12;9.50;99.90
59660;DHT22;45534;52.690;6.268;2023-03-14T05:19:43;9.40;99.90
59660;DHT22;45534;52.690;6.268;2023-03-14T05:22:09;9.40;99.90
59660;DHT22;45534;52.690;6.268;2023-03-14T05:24:35;9.40;99.90
59660;DHT22;45534;52.690;6.268;2023-03-14T05:27:00;9.40;99.90
59660;DHT22;45534;52.690;6.268;2023-03-14T05:29:26;9.40;99.90
59660;DHT22;45534;52.690;6.268;2023-03-14T05:31:51;9.40;99.90
59660;DHT22;45534;52.690;6.268;2023-03-14T05:34:17;9.40;99.90
59660;DHT22;45534;52.690;6.268;2023-03-14T05:36:43;9.30;99.90
59660;DHT22;45534;52.690;6.268;2023-03-14T05:39:08;9.30;99.90
59660;DHT22;45534;52.690;6.268;2023-03-14T05:41:34;9.20;99.90
59660;DHT22;45534;52.690;6.268;2023-03-14T05:44:01;9.10;99.90
59660;DHT22;45534;52.690;6.268;2023-03-14T05:46:26;9.10;99.90
59660;DHT22;45534;52.690;6.268;2023-03-14T05:48:52;9.00;99.90
59660;DHT22;45534;52.690;6.268;2023-03-14T05:51:18;9.00;99.90
59660;DHT22;45534;52.690;6.268;2023-03-14T05:53:43;9.00;99.90
59660;DHT22;45534;52.690;6.268;2023-03-14T05:56:09;9.00;99.90
59660;DHT22;45534;52.690;6.268;2023-03-14T05:58:35;9.00;99.90
59660;DHT22;45534;52.690;6.268;2023-03-14T06:01:04;9.00;99.90
59660;DHT22;45534;52.690;6.268;2023-03-14T06:03:31;9.00;99.90
59660;DHT22;45534;52.690;6.268;2023-03-14T06:05:57;9.00;99.90
59660;DHT22;45534;52.690;6.268;2023-03-14T06:08:24;9.00;99.90
59660;DHT22;45534;52.690;6.268;2023-03-14T06:10:51;9.00;99.90
59660;DHT22;45534;52.690;6.268;2023-03-14T06:13:17;9.00;99.90
59660;DHT22;45534;52.690;6.268;2023-03-14T06:15:43;9.00;99.90
59660;DHT22;45534;52.690;6.268;2023-03-14T06:18:08;9.00;99.90
59660;DHT22;45534;52.690;6.268;2023-03-14T06:20:37;9.00;99.90
59660;DHT22;45534;52.690;6.268;2023-03-14T06:23:07;8.90;99.90
59660;DHT22;45534;52.690;6.268;2023-03-14T06:25:34;8.90;99.90
59660;DHT22;45534;52.690;6.268;2023-03-14T06:28:00;9.00;99.90
59660;DHT22;45534;52.690;6.268;2023-03-14T06:30:25;9.00;99.90
59660;DHT22;45534;52.690;6.268;2023-03-14T06:32:51;8.90;99.90
59660;DHT22;45534;52.690;6.268;2023-03-14T06:35:17;8.90;99.90
59660;DHT22;45534;52.690;6.268;2023-03-14T06:37:43;8.90;99.90
59660;DHT22;45534;52.690;6.268;2023-03-14T06:40:12;8.90;99.90
59660;DHT22;45534;52.690;6.268;2023-03-14T06:42:43;8.90;99.90
59660;DHT22;45534;52.690;6.268;2023-03-14T06:45:09;8.90;99.90
59660;DHT22;45534;52.690;6.268;2023-03-14T06:47:35;8.90;99.90
59660;DHT22;45534;52.690;6.268;2023-03-14T06:50:00;8.90;99.90
59660;DHT22;45534;52.690;6.268;2023-03-14T06:52:26;8.90;99.90
59660;DHT22;45534;52.690;6.268;2023-03-14T06:54:52;8.90;99.90
59660;DHT22;45534;52.690;6.268;2023-03-14T06:57:17;8.90;99.90
59660;DHT22;45534;52.690;6.268;2023-03-14T06:59:43;8.90;99.90
59660;DHT22;45534;52.690;6.268;2023-03-14T07:02:12;8.80;99.90
59660;DHT22;45534;52.690;6.268;2023-03-14T07:04:38;8.80;99.90
59660;DHT22;45534;52.690;6.268;2023-03-14T07:07:04;8.60;99.90
59660;DHT22;45534;52.690;6.268;2023-03-14T07:09:29;8.50;99.90
59660;DHT22;45534;52.690;6.268;2023-03-14T07:11:55;8.50;99.90
59660;DHT22;45534;52.690;6.268;2023-03-14T07:14:21;8.40;99.90
59660;DHT22;45534;52.690;6.268;2023-03-14T07:16:46;8.20;99.90
59660;DHT22;45534;52.690;6.268;2023-03-14T07:19:12;8.10;99.90
59660;DHT22;45534;52.690;6.268;2023-03-14T07:21:38;8.00;99.90
59660;DHT22;45534;52.690;6.268;2023-03-14T07:24:04;7.90;99.90
59660;DHT22;45534;52.690;6.268;2023-03-14T07:26:30;7.80;99.90
59660;DHT22;45534;52.690;6.268;2023-03-14T07:28:56;7.70;99.90
59660;DHT22;45534;52.690;6.268;2023-03-14T07:31:22;7.40;99.90
59660;DHT22;45534;52.690;6.268;2023-03-14T07:33:47;7.20;99.90
59660;DHT22;45534;52.690;6.268;2023-03-14T07:36:13;7.00;99.90
59660;DHT22;45534;52.690;6.268;2023-03-14T07:38:39;6.80;99.90
59660;DHT22;45534;52.690;6.268;2023-03-14T07:41:06;6.60;99.90
59660;DHT22;45534;52.690;6.268;2023-03-14T07:43:32;6.40;99.90
59660;DHT22;45534;52.690;6.268;2023-03-14T07:45:58;6.30;99.90
59660;DHT22;45534;52.690;6.268;2023-03-14T07:48:24;6.20;99.90
59660;DHT22;45534;52.690;6.268;2023-03-14T07:50:54;6.20;99.90
59660;DHT22;45534;52.690;6.268;2023-03-14T07:53:21;6.10;99.90
59660;DHT22;45534;52.690;6.268;2023-03-14T07:55:48;6.20;99.90
59660;DHT22;45534;52.690;6.268;2023-03-14T07:58:14;6.10;99.90
59660;DHT22;45534;52.690;6.268;2023-03-14T08:00:40;5.90;99.90
59660;DHT22;45534;52.690;6.268;2023-03-14T08:03:06;5.70;99.90
59660;DHT22;45534;52.690;6.268;2023-03-14T08:05:34;5.50;99.90
59660;DHT22;45534;52.690;6.268;2023-03-14T08:08:00;5.40;99.90
59660;DHT22;45534;52.690;6.268;2023-03-14T08:10:26;5.20;99.90
59660;DHT22;45534;52.690;6.268;2023-03-14T08:12:55;5.20;99.90
59660;DHT22;45534;52.690;6.268;2023-03-14T08:15:22;5.10;99.90
59660;DHT22;45534;52.690;6.268;2023-03-14T08:17:48;5.00;99.90
59660;DHT22;45534;52.690;6.268;2023-03-14T08:20:21;5.00;99.90
59660;DHT22;45534;52.690;6.268;2023-03-14T08:22:48;5.10;99.90
59660;DHT22;45534;52.690;6.268;2023-03-14T08:25:14;5.10;99.90
59660;DHT22;45534;52.690;6.268;2023-03-14T08:27:40;5.10;99.90
59660;DHT22;45534;52.690;6.268;2023-03-14T08:30:09;5.10;99.90
59660;DHT22;45534;52.690;6.268;2023-03-14T08:32:35;5.10;99.90
59660;DHT22;45534;52.690;6.268;2023-03-14T08:35:01;5.20;99.90
59660;DHT22;45534;52.690;6.268;2023-03-14T08:37:27;5.20;99.90
59660;DHT22;45534;52.690;6.268;2023-03-14T08:39:53;5.20;99.90
59660;DHT22;45534;52.690;6.268;2023-03-14T08:42:18;5.20;99.90
59660;DHT22;45534;52.690;6.268;2023-03-14T08:44:44;5.30;99.90
59660;DHT22;45534;52.690;6.268;2023-03-14T08:47:10;5.30;99.90
59660;DHT22;45534;52.690;6.268;2023-03-14T08:49:36;5.30;99.90
59660;DHT22;45534;52.690;6.268;2023-03-14T08:52:03;5.40;99.90
59660;DHT22;45534;52.690;6.268;2023-03-14T08:54:30;5.50;99.90
59660;DHT22;45534;52.690;6.268;2023-03-14T08:56:56;5.50;99.90
59660;DHT22;45534;52.690;6.268;2023-03-14T08:59:22;5.50;99.90
59660;DHT22;45534;52.690;6.268;2023-03-14T09:01:48;5.50;99.90
59660;DHT22;45534;52.690;6.268;2023-03-14T09:04:14;5.50;99.90
59660;DHT22;45534;52.690;6.268;2023-03-14T09:06:40;5.60;99.90
59660;DHT22;45534;52.690;6.268;2023-03-14T09:09:05;5.60;99.90
59660;DHT22;45534;52.690;6.268;2023-03-14T09:11:31;5.70;99.90
59660;DHT22;45534;52.690;6.268;2023-03-14T09:13:57;5.80;99.90
59660;DHT22;45534;52.690;6.268;2023-03-14T09:16:23;5.90;99.90
59660;DHT22;45534;52.690;6.268;2023-03-14T09:18:49;6.10;99.90
59660;DHT22;45534;52.690;6.268;2023-03-14T09:21:15;6.10;99.90
59660;DHT22;45534;52.690;6.268;2023-03-14T09:23:41;6.20;99.90
59660;DHT22;45534;52.690;6.268;2023-03-14T09:26:07;6.20;99.90
59660;DHT22;45534;52.690;6.268;2023-03-14T09:28:33;6.20;99.90
59660;DHT22;45534;52.690;6.268;2023-03-14T09:31:05;6.20;99.90
59660;DHT22;45534;52.690;6.268;2023-03-14T09:33:31;6.20;99.90
59660;DHT22;45534;52.690;6.268;2023-03-14T09:35:59;6.30;99.90
59660;DHT22;45534;52.690;6.268;2023-03-14T09:38:25;6.40;99.90
59660;DHT22;45534;52.690;6.268;2023-03-14T09:40:53;6.50;99.90
59660;DHT22;45534;52.690;6.268;2023-03-14T09:43:21;6.40;99.90
59660;DHT22;45534;52.690;6.268;2023-03-14T09:45:48;6.40;99.90
59660;DHT22;45534;52.690;6.268;2023-03-14T09:48:17;6.40;99.90
59660;DHT22;45534;52.690;6.268;2023-03-14T09:50:55;6.50;99.90
59660;DHT22;45534;52.690;6.268;2023-03-14T09:53:27;6.50;99.90
59660;DHT22;45534;52.690;6.268;2023-03-14T09:55:54;6.60;99.90
59660;DHT22;45534;52.690;6.268;2023-03-14T09:58:22;6.60;99.90
59660;DHT22;45534;52.690;6.268;2023-03-14T10:00:50;6.60;99.90
59660;DHT22;45534;52.690;6.268;2023-03-14T10:03:29;6.50;99.90
59660;DHT22;45534;52.690;6.268;2023-03-14T10:05:56;6.30;99.90
59660;DHT22;45534;52.690;6.268;2023-03-14T10:08:21;6.20;99.90
59660;DHT22;45534;52.690;6.268;2023-03-14T10:10:47;6.20;99.90
59660;DHT22;45534;52.690;6.268;2023-03-14T10:15:51;6.20;99.90
59660;DHT22;45534;52.690;6.268;2023-03-14T10:18:17;6.10;99.90
59660;DHT22;45534;52.690;6.268;2023-03-14T10:20:46;6.00;99.90
59660;DHT22;45534;52.690;6.268;2023-03-14T10:25:43;6.10;99.90
59660;DHT22;45534;52.690;6.268;2023-03-14T10:28:40;6.20;99.90
59660;DHT22;45534;52.690;6.268;2023-03-14T10:31:08;6.40;99.90
59660;DHT22;45534;52.690;6.268;2023-03-14T10:33:36;6.60;99.90
59660;DHT22;45534;52.690;6.268;2023-03-14T10:36:23;6.70;99.90
59660;DHT22;45534;52.690;6.268;2023-03-14T10:41:48;6.50;99.90
59660;DHT22;45534;52.690;6.268;2023-03-14T10:44:16;6.40;99.90
59660;DHT22;45534;52.690;6.268;2023-03-14T10:46:45;6.40;99.90
59660;DHT22;45534;52.690;6.268;2023-03-14T10:49:27;6.50;99.90
59660;DHT22;45534;52.690;6.268;2023-03-14T10:51:53;6.60;99.90
59660;DHT22;45534;52.690;6.268;2023-03-14T10:54:21;6.70;99.90
59660;DHT22;45534;52.690;6.268;2023-03-14T10:56:57;6.80;99.90
59660;DHT22;45534;52.690;6.268;2023-03-14T10:59:23;6.90;99.90
59660;DHT22;45534;52.690;6.268;2023-03-14T11:06:56;7.10;99.90
59660;DHT22;45534;52.690;6.268;2023-03-14T11:15:04;7.10;99.90
59660;DHT22;45534;52.690;6.268;2023-03-14T11:17:41;7.00;99.90
59660;DHT22;45534;52.690;6.268;2023-03-14T11:20:31;6.90;99.90
59660;DHT22;45534;52.690;6.268;2023-03-14T11:23:14;7.00;99.90
59660;DHT22;45534;52.690;6.268;2023-03-14T11:30:53;7.20;99.60
59660;DHT22;45534;52.690;6.268;2023-03-14T11:35:53;7.50;99.90
59660;DHT22;45534;52.690;6.268;2023-03-14T11:38:32;7.40;99.70
59660;DHT22;45534;52.690;6.268;2023-03-14T11:41:00;7.60;99.90
59660;DHT22;45534;52.690;6.268;2023-03-14T11:43:38;7.90;99.80
59660;DHT22;45534;52.690;6.268;2023-03-14T11:46:30;7.80;95.50
59660;DHT22;45534;52.690;6.268;2023-03-14T11:49:31;7.80;96.50
59660;DHT22;45534;52.690;6.268;2023-03-14T11:52:03;7.60;96.20
59660;DHT22;45534;52.690;6.268;2023-03-14T11:54:39;7.60;98.50
59660;DHT22;45534;52.690;6.268;2023-03-14T11:57:17;7.60;99.50
59660;DHT22;45534;52.690;6.268;2023-03-14T12:05:51;7.40;99.90
59660;DHT22;45534;52.690;6.268;2023-03-14T12:13:40;7.50;95.90
59660;DHT22;45534;52.690;6.268;2023-03-14T12:18:52;7.30;95.90
59660;DHT22;45534;52.690;6.268;2023-03-14T12:21:18;7.40;96.30
59660;DHT22;45534;52.690;6.268;2023-03-14T12:23:54;7.70;95.40
59660;DHT22;45534;52.690;6.268;2023-03-14T12:26:23;7.90;94.20
59660;DHT22;45534;52.690;6.268;2023-03-14T12:29:11;8.20;92.10
59660;DHT22;45534;52.690;6.268;2023-03-14T12:32:12;8.50;93.70
59660;DHT22;45534;52.690;6.268;2023-03-14T12:34:43;8.60;91.80
59660;DHT22;45534;52.690;6.268;2023-03-14T12:40:19;8.70;91.80
59660;DHT22;45534;52.690;6.268;2023-03-14T12:43:04;8.70;90.60
59660;DHT22;45534;52.690;6.268;2023-03-14T12:48:38;8.90;92.30
59660;DHT22;45534;52.690;6.268;2023-03-14T12:51:13;9.00;92.30
59660;DHT22;45534;52.690;6.268;2023-03-14T13:00:17;8.50;94.20
59660;DHT22;45534;52.690;6.268;2023-03-14T13:02:44;8.90;94.30
59660;DHT22;45534;52.690;6.268;2023-03-14T13:05:15;9.20;91.50
59660;DHT22;45534;52.690;6.268;2023-03-14T13:10:27;8.60;92.20
59660;DHT22;45534;52.690;6.268;2023-03-14T13:15:45;8.60;91.20
59660;DHT22;45534;52.690;6.268;2023-03-14T13:18:35;8.20;90.00
59660;DHT22;45534;52.690;6.268;2023-03-14T13:21:24;8.20;90.40
59660;DHT22;45534;52.690;6.268;2023-03-14T13:24:27;7.90;90.00
59660;DHT22;45534;52.690;6.268;2023-03-14T13:26:56;7.90;90.00
59660;DHT22;45534;52.690;6.268;2023-03-14T13:29:29;8.20;90.20
59660;DHT22;45534;52.690;6.268;2023-03-14T13:31:59;8.40;89.10
59660;DHT22;45534;52.690;6.268;2023-03-14T13:34:32;8.60;87.10
59660;DHT22;45534;52.690;6.268;2023-03-14T13:36:59;8.60;81.80
59660;DHT22;45534;52.690;6.268;2023-03-14T13:39:26;8.70;78.30
59660;DHT22;45534;52.690;6.268;2023-03-14T13:41:58;8.90;75.60
59660;DHT22;45534;52.690;6.268;2023-03-14T13:46:51;9.10;73.60
59660;DHT22;45534;52.690;6.268;2023-03-14T13:49:22;9.00;73.00
59660;DHT22;45534;52.690;6.268;2023-03-14T13:51:48;8.80;77.00
59660;DHT22;45534;52.690;6.268;2023-03-14T13:54:16;8.70;74.60
59660;DHT22;45534;52.690;6.268;2023-03-14T13:56:43;8.40;77.60
59660;DHT22;45534;52.690;6.268;2023-03-14T14:01:47;7.80;80.90
59660;DHT22;45534;52.690;6.268;2023-03-14T14:04:18;7.70;81.70
59660;DHT22;45534;52.690;6.268;2023-03-14T14:06:57;8.00;81.60
59660;DHT22;45534;52.690;6.268;2023-03-14T14:09:30;8.50;79.10
59660;DHT22;45534;52.690;6.268;2023-03-14T14:12:13;8.00;79.00
59660;DHT22;45534;52.690;6.268;2023-03-14T14:17:13;7.30;83.10
59660;DHT22;45534;52.690;6.268;2023-03-14T14:19:41;7.10;84.40
59660;DHT22;45534;52.690;6.268;2023-03-14T14:22:09;7.00;83.80
59660;DHT22;45534;52.690;6.268;2023-03-14T14:24:36;7.30;84.60
59660;DHT22;45534;52.690;6.268;2023-03-14T14:27:39;7.90;84.70
59660;DHT22;45534;52.690;6.268;2023-03-14T14:30:30;7.80;80.20
59660;DHT22;45534;52.690;6.268;2023-03-14T14:33:19;7.60;81.70
59660;DHT22;45534;52.690;6.268;2023-03-14T14:35:57;7.70;82.90
59660;DHT22;45534;52.690;6.268;2023-03-14T14:38:24;8.40;84.70
59660;DHT22;45534;52.690;6.268;2023-03-14T14:40:53;9.10;82.40
59660;DHT22;45534;52.690;6.268;2023-03-14T14:43:22;9.50;78.40
59660;DHT22;45534;52.690;6.268;2023-03-14T14:45:50;9.90;78.40
59660;DHT22;45534;52.690;6.268;2023-03-14T14:48:20;9.70;76.80
59660;DHT22;45534;52.690;6.268;2023-03-14T14:50:58;9.00;74.70
59660;DHT22;45534;52.690;6.268;2023-03-14T14:53:36;8.60;76.10
59660;DHT22;45534;52.690;6.268;2023-03-14T14:56:25;9.10;75.30
59660;DHT22;45534;52.690;6.268;2023-03-14T14:58:58;9.40;73.00
59660;DHT22;45534;52.690;6.268;2023-03-14T15:01:25;9.50;74.40
59660;DHT22;45534;52.690;6.268;2023-03-14T15:03:56;9.00;74.80
59660;DHT22;45534;52.690;6.268;2023-03-14T15:06:24;8.10;76.70
59660;DHT22;45534;52.690;6.268;2023-03-14T15:08:52;7.70;79.70
59660;DHT22;45534;52.690;6.268;2023-03-14T15:11:23;7.90;80.70
59660;DHT22;45534;52.690;6.268;2023-03-14T15:13:52;8.20;80.70
59660;DHT22;45534;52.690;6.268;2023-03-14T15:16:20;8.40;81.60
59660;DHT22;45534;52.690;6.268;2023-03-14T15:18:54;8.00;81.00
59660;DHT22;45534;52.690;6.268;2023-03-14T15:21:24;7.90;83.70
59660;DHT22;45534;52.690;6.268;2023-03-14T15:23:50;8.00;83.70
59660;DHT22;45534;52.690;6.268;2023-03-14T15:26:19;8.00;85.80
59660;DHT22;45534;52.690;6.268;2023-03-14T15:28:46;7.60;87.80
59660;DHT22;45534;52.690;6.268;2023-03-14T15:31:17;7.30;90.90
59660;DHT22;45534;52.690;6.268;2023-03-14T15:33:44;7.00;91.20
59660;DHT22;45534;52.690;6.268;2023-03-14T15:36:24;6.90;93.00
59660;DHT22;45534;52.690;6.268;2023-03-14T15:38:51;6.80;96.90
59660;DHT22;45534;52.690;6.268;2023-03-14T15:41:18;6.40;99.90
59660;DHT22;45534;52.690;6.268;2023-03-14T15:43:44;6.10;99.90
59660;DHT22;45534;52.690;6.268;2023-03-14T15:46:11;6.00;99.90
59660;DHT22;45534;52.690;6.268;2023-03-14T15:48:36;6.20;99.90
59660;DHT22;45534;52.690;6.268;2023-03-14T15:51:02;6.50;99.90
59660;DHT22;45534;52.690;6.268;2023-03-14T15:53:28;6.90;99.90
59660;DHT22;45534;52.690;6.268;2023-03-14T15:55:55;7.10;99.90
59660;DHT22;45534;52.690;6.268;2023-03-14T15:58:21;7.40;99.10
59660;DHT22;45534;52.690;6.268;2023-03-14T16:00:47;7.70;98.00
59660;DHT22;45534;52.690;6.268;2023-03-14T16:03:13;7.70;94.30
59660;DHT22;45534;52.690;6.268;2023-03-14T16:05:39;7.50;92.60
59660;DHT22;45534;52.690;6.268;2023-03-14T16:08:05;7.10;91.90
59660;DHT22;45534;52.690;6.268;2023-03-14T16:10:31;6.80;92.30
59660;DHT22;45534;52.690;6.268;2023-03-14T16:12:58;6.70;93.30
59660;DHT22;45534;52.690;6.268;2023-03-14T16:15:23;6.60;94.20
59660;DHT22;45534;52.690;6.268;2023-03-14T16:17:55;6.50;92.50
59660;DHT22;45534;52.690;6.268;2023-03-14T16:20:22;6.40;92.70
59660;DHT22;45534;52.690;6.268;2023-03-14T16:22:48;6.40;92.50
59660;DHT22;45534;52.690;6.268;2023-03-14T16:25:14;6.40;94.10
59660;DHT22;45534;52.690;6.268;2023-03-14T16:27:40;6.30;95.20
59660;DHT22;45534;52.690;6.268;2023-03-14T16:30:08;6.30;96.40
59660;DHT22;45534;52.690;6.268;2023-03-14T16:32:35;6.20;97.80
59660;DHT22;45534;52.690;6.268;2023-03-14T16:35:01;6.20;99.70
59660;DHT22;45534;52.690;6.268;2023-03-14T16:37:27;6.20;98.60
59660;DHT22;45534;52.690;6.268;2023-03-14T16:39:53;6.20;99.40
59660;DHT22;45534;52.690;6.268;2023-03-14T16:42:20;6.20;98.70
59660;DHT22;45534;52.690;6.268;2023-03-14T16:44:46;6.10;98.80
59660;DHT22;45534;52.690;6.268;2023-03-14T16:47:12;6.00;99.60
59660;DHT22;45534;52.690;6.268;2023-03-14T16:49:38;6.00;99.90
59660;DHT22;45534;52.690;6.268;2023-03-14T16:52:04;6.00;99.90
59660;DHT22;45534;52.690;6.268;2023-03-14T16:54:31;6.00;99.90
59660;DHT22;45534;52.690;6.268;2023-03-14T16:56:57;6.00;99.90
59660;DHT22;45534;52.690;6.268;2023-03-14T16:59:22;6.00;99.90
59660;DHT22;45534;52.690;6.268;2023-03-14T17:01:50;5.90;99.90
59660;DHT22;45534;52.690;6.268;2023-03-14T17:04:15;5.90;99.90
59660;DHT22;45534;52.690;6.268;2023-03-14T17:06:41;5.80;99.90
59660;DHT22;45534;52.690;6.268;2023-03-14T17:09:10;5.80;99.90
59660;DHT22;45534;52.690;6.268;2023-03-14T17:11:36;5.70;99.90
59660;DHT22;45534;52.690;6.268;2023-03-14T17:14:03;5.70;99.90